sensor_id;sensor_type;location;lat;lon;timestamp;temperature;humidity
1678;DHT22;6034;46.864;15.216;2023-02-22T06:02:27;7.60;92.70
1678;DHT22;6034;46.864;15.216;2023-02-22T06:04:54;7.50;92.60
1678;DHT22;6034;46.864;15.216;2023-02-22T06:07:21;7.60;92.70
1678;DHT22;6034;46.864;15.216;2023-02-22T06:09:48;7.70;92.60
1678;DHT22;6034;46.864;15.216;2023-02-22T06:12:15;7.60;92.40
1678;DHT22;6034;46.864;15.216;2023-02-22T06:14:42;7.60;92.60
1678;DHT22;6034;46.864;15.216;2023-02-22T06:17:11;7.70;92.70
1678;DHT22;6034;46.864;15.216;2023-02-22T06:19:39;7.60;92.40
1678;DHT22;6034;46.864;15.216;2023-02-22T06:22:07;7.40;93.20
1678;DHT22;6034;46.864;15.216;2023-02-22T06:24:34;7.50;93.90
1678;DHT22;6034;46.864;15.216;2023-02-22T06:27:03;7.50;94.00
1678;DHT22;6034;46.864;15.216;2023-02-22T06:29:30;7.60;94.30
1678;DHT22;6034;46.864;15.216;2023-02-22T06:31:57;7.30;95.00
1678;DHT22;6034;46.864;15.216;2023-02-22T06:34:24;7.40;95.50
1678;DHT22;6034;46.864;15.216;2023-02-22T06:36:53;7.30;95.50
1678;DHT22;6034;46.864;15.216;2023-02-22T06:39:20;7.40;95.70
1678;DHT22;6034;46.864;15.216;2023-02-22T06:41:48;7.50;95.70
1678;DHT22;6034;46.864;15.216;2023-02-22T06:44:15;7.50;95.00
1678;DHT22;6034;46.864;15.216;2023-02-22T06:46:45;7.60;95.30
1678;DHT22;6034;46.864;15.216;2023-02-22T06:49:12;7.60;95.30
1678;DHT22;6034;46.864;15.216;2023-02-22T06:51:40;7.70;95.10
1678;DHT22;6034;46.864;15.216;2023-02-22T06:54:08;7.70;95.10
1678;DHT22;6034;46.864;15.216;2023-02-22T06:56:36;7.50;95.00
1678;DHT22;6034;46.864;15.216;2023-02-22T06:59:03;7.30;95.40
1678;DHT22;6034;46.864;15.216;2023-02-22T07:01:30;7.40;95.50
1678;DHT22;6034;46.864;15.216;2023-02-22T07:03:57;7.60;95.30
1678;DHT22;6034;46.864;15.216;2023-02-22T07:06:24;7.60;95.30
1678;DHT22;6034;46.864;15.216;2023-02-22T07:08:51;7.60;95.40
1678;DHT22;6034;46.864;15.216;2023-02-22T07:11:19;7.60;95.40
1678;DHT22;6034;46.864;15.216;2023-02-22T07:13:46;7.60;95.10
1678;DHT22;6034;46.864;15.216;2023-02-22T07:16:14;7.80;94.70
1678;DHT22;6034;46.864;15.216;2023-02-22T07:18:42;7.80;94.30
1678;DHT22;6034;46.864;15.216;2023-02-22T07:21:09;7.80;94.40
1678;DHT22;6034;46.864;15.216;2023-02-22T07:23:37;7.90;94.30
1678;DHT22;6034;46.864;15.216;2023-02-22T07:26:04;7.70;94.40
1678;DHT22;6034;46.864;15.216;2023-02-22T07:28:33;8.00;94.40
1678;DHT22;6034;46.864;15.216;2023-02-22T07:31:00;8.00;94.50
1678;DHT22;6034;46.864;15.216;2023-02-22T07:33:27;8.20;94.40
1678;DHT22;6034;46.864;15.216;2023-02-22T07:35:55;8.20;94.40
1678;DHT22;6034;46.864;15.216;2023-02-22T07:38:22;8.40;94.40
1678;DHT22;6034;46.864;15.216;2023-02-22T07:40:49;8.40;94.30
1678;DHT22;6034;46.864;15.216;2023-02-22T07:43:18;8.50;94.30
1678;DHT22;6034;46.864;15.216;2023-02-22T07:45:47;8.50;94.40
1678;DHT22;6034;46.864;15.216;2023-02-22T07:48:16;8.70;94.50
1678;DHT22;6034;46.864;15.216;2023-02-22T07:50:44;8.70;94.70
1678;DHT22;6034;46.864;15.216;2023-02-22T07:53:13;8.90;94.50
1678;DHT22;6034;46.864;15.216;2023-02-22T07:55:41;8.90;94.60
1678;DHT22;6034;46.864;15.216;2023-02-22T07:58:11;9.10;94.80
1678;DHT22;6034;46.864;15.216;2023-02-22T08:00:40;9.10;95.30
1678;DHT22;6034;46.864;15.216;2023-02-22T08:03:11;9.20;95.30
1678;DHT22;6034;46.864;15.216;2023-02-22T08:05:41;9.40;94.70
1678;DHT22;6034;46.864;15.216;2023-02-22T08:08:10;9.40;94.90
1678;DHT22;6034;46.864;15.216;2023-02-22T08:10:39;9.40;94.60
1678;DHT22;6034;46.864;15.216;2023-02-22T08:13:06;9.30;94.70
1678;DHT22;6034;46.864;15.216;2023-02-22T08:15:36;9.50;94.70
1678;DHT22;6034;46.864;15.216;2023-02-22T08:18:05;9.40;94.90
1678;DHT22;6034;46.864;15.216;2023-02-22T08:20:36;9.70;94.30
1678;DHT22;6034;46.864;15.216;2023-02-22T08:23:04;9.50;94.00
1678;DHT22;6034;46.864;15.216;2023-02-22T08:25:32;9.70;94.20
1678;DHT22;6034;46.864;15.216;2023-02-22T08:28:02;9.50;94.00
1678;DHT22;6034;46.864;15.216;2023-02-22T08:30:30;9.20;94.20
1678;DHT22;6034;46.864;15.216;2023-02-22T08:33:00;9.80;94.20
1678;DHT22;6034;46.864;15.216;2023-02-22T08:35:28;9.90;94.70
1678;DHT22;6034;46.864;15.216;2023-02-22T08:37:59;9.70;94.40
1678;DHT22;6034;46.864;15.216;2023-02-22T08:40:29;9.90;94.80
1678;DHT22;6034;46.864;15.216;2023-02-22T08:42:57;9.90;94.50
1678;DHT22;6034;46.864;15.216;2023-02-22T08:45:26;10.00;93.80
1678;DHT22;6034;46.864;15.216;2023-02-22T08:47:53;9.70;94.40
1678;DHT22;6034;46.864;15.216;2023-02-22T08:50:23;10.00;94.30
1678;DHT22;6034;46.864;15.216;2023-02-22T08:52:53;10.10;94.60
1678;DHT22;6034;46.864;15.216;2023-02-22T08:55:23;10.00;94.60
1678;DHT22;6034;46.864;15.216;2023-02-22T08:57:50;10.10;95.40
1678;DHT22;6034;46.864;15.216;2023-02-22T09:00:19;10.40;94.60
1678;DHT22;6034;46.864;15.216;2023-02-22T09:02:49;10.40;94.70
1678;DHT22;6034;46.864;15.216;2023-02-22T09:05:17;10.50;94.30
1678;DHT22;6034;46.864;15.216;2023-02-22T09:07:44;10.60;94.60
1678;DHT22;6034;46.864;15.216;2023-02-22T09:10:13;10.70;94.20
1678;DHT22;6034;46.864;15.216;2023-02-22T09:12:43;10.70;94.50
1678;DHT22;6034;46.864;15.216;2023-02-22T09:15:11;11.00;94.30
1678;DHT22;6034;46.864;15.216;2023-02-22T09:17:38;11.00;94.40
1678;DHT22;6034;46.864;15.216;2023-02-22T09:20:07;11.20;93.80
1678;DHT22;6034;46.864;15.216;2023-02-22T09:22:35;11.20;94.10
1678;DHT22;6034;46.864;15.216;2023-02-22T09:25:02;11.50;94.10
1678;DHT22;6034;46.864;15.216;2023-02-22T09:27:29;11.60;94.00
1678;DHT22;6034;46.864;15.216;2023-02-22T09:29:58;11.70;94.00
1678;DHT22;6034;46.864;15.216;2023-02-22T09:32:25;11.80;94.10
1678;DHT22;6034;46.864;15.216;2023-02-22T09:34:53;11.80;93.90
1678;DHT22;6034;46.864;15.216;2023-02-22T09:37:21;11.80;93.50
1678;DHT22;6034;46.864;15.216;2023-02-22T09:39:48;12.00;93.70
1678;DHT22;6034;46.864;15.216;2023-02-22T09:42:21;12.10;93.80
1678;DHT22;6034;46.864;15.216;2023-02-22T09:44:55;12.20;93.70
1678;DHT22;6034;46.864;15.216;2023-02-22T09:47:34;12.20;93.30
1678;DHT22;6034;46.864;15.216;2023-02-22T09:50:06;12.10;93.40
1678;DHT22;6034;46.864;15.216;2023-02-22T09:52:53;12.10;93.70
1678;DHT22;6034;46.864;15.216;2023-02-22T09:55:30;11.80;93.60
1678;DHT22;6034;46.864;15.216;2023-02-22T09:58:02;12.00;94.00
1678;DHT22;6034;46.864;15.216;2023-02-22T10:00:33;12.10;93.80
1678;DHT22;6034;46.864;15.216;2023-02-22T10:03:14;12.30;93.90
1678;DHT22;6034;46.864;15.216;2023-02-22T10:05:46;12.40;93.70
1678;DHT22;6034;46.864;15.216;2023-02-22T10:08:16;11.90;94.20
1678;DHT22;6034;46.864;15.216;2023-02-22T10:10:45;11.90;94.40
1678;DHT22;6034;46.864;15.216;2023-02-22T10:13:28;11.70;95.10
1678;DHT22;6034;46.864;15.216;2023-02-22T10:16:00;11.80;95.30
1678;DHT22;6034;46.864;15.216;2023-02-22T10:18:48;11.50;94.90
1678;DHT22;6034;46.864;15.216;2023-02-22T10:24:24;11.70;95.20
1678;DHT22;6034;46.864;15.216;2023-02-22T10:26:55;12.10;95.30
1678;DHT22;6034;46.864;15.216;2023-02-22T10:29:30;12.40;95.20
1678;DHT22;6034;46.864;15.216;2023-02-22T10:32:02;12.40;95.30
1678;DHT22;6034;46.864;15.216;2023-02-22T10:34:40;12.20;94.30
1678;DHT22;6034;46.864;15.216;2023-02-22T10:37:20;12.10;95.10
1678;DHT22;6034;46.864;15.216;2023-02-22T10:39:49;12.10;94.70
1678;DHT22;6034;46.864;15.216;2023-02-22T10:42:23;12.50;94.90
1678;DHT22;6034;46.864;15.216;2023-02-22T10:44:51;12.70;95.20
1678;DHT22;6034;46.864;15.216;2023-02-22T10:47:19;12.90;94.80
1678;DHT22;6034;46.864;15.216;2023-02-22T10:49:50;12.90;94.90
1678;DHT22;6034;46.864;15.216;2023-02-22T10:52:24;12.70;94.10
1678;DHT22;6034;46.864;15.216;2023-02-22T10:54:54;12.80;94.40
1678;DHT22;6034;46.864;15.216;2023-02-22T10:57:25;13.00;94.50
1678;DHT22;6034;46.864;15.216;2023-02-22T10:59:53;12.60;94.00
1678;DHT22;6034;46.864;15.216;2023-02-22T11:02:26;12.60;94.40
1678;DHT22;6034;46.864;15.216;2023-02-22T11:04:58;12.60;94.20
1678;DHT22;6034;46.864;15.216;2023-02-22T11:07:27;13.00;94.40
1678;DHT22;6034;46.864;15.216;2023-02-22T11:09:56;13.20;93.80
1678;DHT22;6034;46.864;15.216;2023-02-22T11:12:28;13.10;94.10
1678;DHT22;6034;46.864;15.216;2023-02-22T11:14:55;12.80;93.70
1678;DHT22;6034;46.864;15.216;2023-02-22T11:17:25;13.20;94.00
1678;DHT22;6034;46.864;15.216;2023-02-22T11:19:56;12.70;93.20
1678;DHT22;6034;46.864;15.216;2023-02-22T11:22:24;13.10;94.20
1678;DHT22;6034;46.864;15.216;2023-02-22T11:24:54;13.00;93.50
1678;DHT22;6034;46.864;15.216;2023-02-22T11:27:32;13.20;93.60
1678;DHT22;6034;46.864;15.216;2023-02-22T11:30:20;13.30;93.90
1678;DHT22;6034;46.864;15.216;2023-02-22T11:32:49;13.50;94.40
1678;DHT22;6034;46.864;15.216;2023-02-22T11:35:30;13.40;93.90
1678;DHT22;6034;46.864;15.216;2023-02-22T11:38:12;13.40;94.30
1678;DHT22;6034;46.864;15.216;2023-02-22T11:40:41;13.30;93.90
1678;DHT22;6034;46.864;15.216;2023-02-22T11:43:09;13.50;93.80
1678;DHT22;6034;46.864;15.216;2023-02-22T11:45:53;13.70;93.40
1678;DHT22;6034;46.864;15.216;2023-02-22T11:48:21;13.70;93.20
1678;DHT22;6034;46.864;15.216;2023-02-22T11:50:54;13.30;93.50
1678;DHT22;6034;46.864;15.216;2023-02-22T11:53:25;13.40;93.60
1678;DHT22;6034;46.864;15.216;2023-02-22T11:56:00;13.40;93.50
1678;DHT22;6034;46.864;15.216;2023-02-22T11:58:35;13.50;93.60
1678;DHT22;6034;46.864;15.216;2023-02-22T12:01:06;13.60;93.40
1678;DHT22;6034;46.864;15.216;2023-02-22T12:03:38;13.80;92.90
1678;DHT22;6034;46.864;15.216;2023-02-22T12:06:12;13.90;92.80
1678;DHT22;6034;46.864;15.216;2023-02-22T12:08:47;13.90;93.00
1678;DHT22;6034;46.864;15.216;2023-02-22T12:11:19;14.00;92.50
1678;DHT22;6034;46.864;15.216;2023-02-22T12:13:52;14.10;92.50
1678;DHT22;6034;46.864;15.216;2023-02-22T12:16:23;14.00;92.20
1678;DHT22;6034;46.864;15.216;2023-02-22T12:18:58;14.00;91.90
1678;DHT22;6034;46.864;15.216;2023-02-22T12:21:32;14.00;92.10
1678;DHT22;6034;46.864;15.216;2023-02-22T12:24:00;14.20;92.30
1678;DHT22;6034;46.864;15.216;2023-02-22T12:26:30;14.30;92.40
1678;DHT22;6034;46.864;15.216;2023-02-22T12:29:00;14.20;92.00
1678;DHT22;6034;46.864;15.216;2023-02-22T12:31:30;14.20;92.30
1678;DHT22;6034;46.864;15.216;2023-02-22T12:34:05;14.10;92.10
1678;DHT22;6034;46.864;15.216;2023-02-22T12:36:37;14.20;91.50
1678;DHT22;6034;46.864;15.216;2023-02-22T12:39:10;14.10;91.40
1678;DHT22;6034;46.864;15.216;2023-02-22T12:41:47;14.10;92.20
1678;DHT22;6034;46.864;15.216;2023-02-22T12:44:18;14.20;91.80
1678;DHT22;6034;46.864;15.216;2023-02-22T12:46:47;14.00;91.60
1678;DHT22;6034;46.864;15.216;2023-02-22T12:49:18;13.90;91.50
1678;DHT22;6034;46.864;15.216;2023-02-22T12:51:50;13.90;91.80
1678;DHT22;6034;46.864;15.216;2023-02-22T12:54:21;14.20;92.30
1678;DHT22;6034;46.864;15.216;2023-02-22T12:56:52;14.20;91.90
1678;DHT22;6034;46.864;15.216;2023-02-22T12:59:21;14.30;92.00
1678;DHT22;6034;46.864;15.216;2023-02-22T13:01:52;14.20;91.30
1678;DHT22;6034;46.864;15.216;2023-02-22T13:04:20;14.30;91.20
1678;DHT22;6034;46.864;15.216;2023-02-22T13:06:52;14.20;91.30
1678;DHT22;6034;46.864;15.216;2023-02-22T13:09:32;14.20;91.50
1678;DHT22;6034;46.864;15.216;2023-02-22T13:12:02;14.30;91.70
1678;DHT22;6034;46.864;15.216;2023-02-22T13:14:36;14.30;91.50
1678;DHT22;6034;46.864;15.216;2023-02-22T13:17:06;14.20;91.60
1678;DHT22;6034;46.864;15.216;2023-02-22T13:19:37;14.20;90.90
1678;DHT22;6034;46.864;15.216;2023-02-22T13:22:08;14.20;90.80
1678;DHT22;6034;46.864;15.216;2023-02-22T13:24:42;14.20;90.90
1678;DHT22;6034;46.864;15.216;2023-02-22T13:27:11;14.20;91.20
1678;DHT22;6034;46.864;15.216;2023-02-22T13:29:40;14.10;91.30
1678;DHT22;6034;46.864;15.216;2023-02-22T13:32:12;14.00;90.60
1678;DHT22;6034;46.864;15.216;2023-02-22T13:34:50;14.10;91.00
1678;DHT22;6034;46.864;15.216;2023-02-22T13:37:26;14.10;90.80
1678;DHT22;6034;46.864;15.216;2023-02-22T13:40:12;14.20;90.70
1678;DHT22;6034;46.864;15.216;2023-02-22T13:42:57;14.10;90.40
1678;DHT22;6034;46.864;15.216;2023-02-22T13:51:08;14.40;90.20
1678;DHT22;6034;46.864;15.216;2023-02-22T13:53:41;14.30;90.20
1678;DHT22;6034;46.864;15.216;2023-02-22T13:56:12;14.30;90.50
1678;DHT22;6034;46.864;15.216;2023-02-22T13:58:46;14.40;90.60
1678;DHT22;6034;46.864;15.216;2023-02-22T14:04:00;14.50;90.00
1678;DHT22;6034;46.864;15.216;2023-02-22T14:06:44;14.50;89.90
1678;DHT22;6034;46.864;15.216;2023-02-22T14:09:15;14.30;89.40
1678;DHT22;6034;46.864;15.216;2023-02-22T14:11:44;14.00;89.10
1678;DHT22;6034;46.864;15.216;2023-02-22T14:14:13;13.80;88.90
1678;DHT22;6034;46.864;15.216;2023-02-22T14:16:41;14.20;89.90
1678;DHT22;6034;46.864;15.216;2023-02-22T14:19:12;14.20;89.40
1678;DHT22;6034;46.864;15.216;2023-02-22T14:21:56;14.30;89.70
1678;DHT22;6034;46.864;15.216;2023-02-22T14:24:27;14.40;90.20
1678;DHT22;6034;46.864;15.216;2023-02-22T14:26:57;14.50;90.20
1678;DHT22;6034;46.864;15.216;2023-02-22T14:29:24;14.50;89.80
1678;DHT22;6034;46.864;15.216;2023-02-22T14:31:57;14.40;89.60
1678;DHT22;6034;46.864;15.216;2023-02-22T14:34:37;14.50;89.60
1678;DHT22;6034;46.864;15.216;2023-02-22T14:37:06;14.60;88.90
1678;DHT22;6034;46.864;15.216;2023-02-22T14:39:36;14.50;88.80
1678;DHT22;6034;46.864;15.216;2023-02-22T14:42:06;14.60;88.70
1678;DHT22;6034;46.864;15.216;2023-02-22T14:44:36;14.60;87.80
1678;DHT22;6034;46.864;15.216;2023-02-22T14:47:06;14.40;87.40
1678;DHT22;6034;46.864;15.216;2023-02-22T14:49:35;14.30;87.60
1678;DHT22;6034;46.864;15.216;2023-02-22T14:52:05;14.20;87.50
1678;DHT22;6034;46.864;15.216;2023-02-22T14:54:34;14.20;88.20
1678;DHT22;6034;46.864;15.216;2023-02-22T14:57:08;14.30;88.10
1678;DHT22;6034;46.864;15.216;2023-02-22T14:59:46;14.30;87.80
1678;DHT22;6034;46.864;15.216;2023-02-22T15:02:16;14.40;88.10
1678;DHT22;6034;46.864;15.216;2023-02-22T15:04:49;14.40;88.00
1678;DHT22;6034;46.864;15.216;2023-02-22T15:07:21;14.30;88.00
1678;DHT22;6034;46.864;15.216;2023-02-22T15:09:55;14.20;87.80
1678;DHT22;6034;46.864;15.216;2023-02-22T15:12:31;14.20;88.00
1678;DHT22;6034;46.864;15.216;2023-02-22T15:15:14;14.20;88.00
1678;DHT22;6034;46.864;15.216;2023-02-22T15:17:43;14.30;89.40
1678;DHT22;6034;46.864;15.216;2023-02-22T15:20:11;14.20;88.40
1678;DHT22;6034;46.864;15.216;2023-02-22T15:22:40;14.20;89.20
1678;DHT22;6034;46.864;15.216;2023-02-22T15:25:07;14.10;88.60
1678;DHT22;6034;46.864;15.216;2023-02-22T15:27:37;14.10;88.80
1678;DHT22;6034;46.864;15.216;2023-02-22T15:30:15;14.20;89.40
1678;DHT22;6034;46.864;15.216;2023-02-22T15:32:46;14.20;89.10
1678;DHT22;6034;46.864;15.216;2023-02-22T15:35:14;14.30;88.40
1678;DHT22;6034;46.864;15.216;2023-02-22T15:37:42;14.30;88.70
1678;DHT22;6034;46.864;15.216;2023-02-22T15:40:12;14.20;86.50
1678;DHT22;6034;46.864;15.216;2023-02-22T15:42:46;14.20;87.40
1678;DHT22;6034;46.864;15.216;2023-02-22T15:45:16;14.20;87.90
1678;DHT22;6034;46.864;15.216;2023-02-22T15:47:46;14.20;87.40
1678;DHT22;6034;46.864;15.216;2023-02-22T15:50:16;14.20;86.50
1678;DHT22;6034;46.864;15.216;2023-02-22T15:52:46;14.20;86.90
1678;DHT22;6034;46.864;15.216;2023-02-22T15:55:17;14.10;87.10
1678;DHT22;6034;46.864;15.216;2023-02-22T15:57:48;13.70;90.00
1678;DHT22;6034;46.864;15.216;2023-02-22T16:00:19;13.60;90.80
1678;DHT22;6034;46.864;15.216;2023-02-22T16:02:46;13.60;91.20
1678;DHT22;6034;46.864;15.216;2023-02-22T16:05:16;13.60;91.40
1678;DHT22;6034;46.864;15.216;2023-02-22T16:07:44;13.70;91.80
1678;DHT22;6034;46.864;15.216;2023-02-22T16:10:19;13.70;91.50
1678;DHT22;6034;46.864;15.216;2023-02-22T16:12:48;13.70;91.80
1678;DHT22;6034;46.864;15.216;2023-02-22T16:15:17;13.70;91.80
1678;DHT22;6034;46.864;15.216;2023-02-22T16:17:45;13.70;91.90
1678;DHT22;6034;46.864;15.216;2023-02-22T16:20:31;13.60;91.80
1678;DHT22;6034;46.864;15.216;2023-02-22T16:23:00;13.60;92.00
1678;DHT22;6034;46.864;15.216;2023-02-22T16:26:00;13.50;92.00
1678;DHT22;6034;46.864;15.216;2023-02-22T16:28:28;13.40;92.20
1678;DHT22;6034;46.864;15.216;2023-02-22T16:30:58;13.40;92.30
1678;DHT22;6034;46.864;15.216;2023-02-22T16:33:26;13.40;92.50
1678;DHT22;6034;46.864;15.216;2023-02-22T16:36:01;13.30;92.50
1678;DHT22;6034;46.864;15.216;2023-02-22T16:38:30;13.30;92.50
1678;DHT22;6034;46.864;15.216;2023-02-22T16:40:58;13.20;92.60
1678;DHT22;6034;46.864;15.216;2023-02-22T16:43:25;13.10;92.70
1678;DHT22;6034;46.864;15.216;2023-02-22T16:45:55;13.10;92.70
1678;DHT22;6034;46.864;15.216;2023-02-22T16:48:23;13.10;92.80
1678;DHT22;6034;46.864;15.216;2023-02-22T16:50:50;13.00;93.00
1678;DHT22;6034;46.864;15.216;2023-02-22T16:53:18;12.90;93.00
1678;DHT22;6034;46.864;15.216;2023-02-22T16:55:46;12.90;93.10
1678;DHT22;6034;46.864;15.216;2023-02-22T16:58:15;12.90;93.20
1678;DHT22;6034;46.864;15.216;2023-02-22T17:00:43;12.90;93.20
1678;DHT22;6034;46.864;15.216;2023-02-22T17:03:13;12.80;93.30
1678;DHT22;6034;46.864;15.216;2023-02-22T17:05:40;12.80;93.50
1678;DHT22;6034;46.864;15.216;2023-02-22T17:08:08;12.70;93.70
1678;DHT22;6034;46.864;15.216;2023-02-22T17:10:36;12.70;93.70
1678;DHT22;6034;46.864;15.216;2023-02-22T17:13:04;12.50;94.40
1678;DHT22;6034;46.864;15.216;2023-02-22T17:15:33;12.50;94.10
1678;DHT22;6034;46.864;15.216;2023-02-22T17:18:01;12.50;94.00
1678;DHT22;6034;46.864;15.216;2023-02-22T17:20:31;12.50;94.00
1678;DHT22;6034;46.864;15.216;2023-02-22T17:22:58;12.40;94.20
1678;DHT22;6034;46.864;15.216;2023-02-22T17:25:26;12.30;94.30
1678;DHT22;6034;46.864;15.216;2023-02-22T17:27:54;12.30;94.30
1678;DHT22;6034;46.864;15.216;2023-02-22T17:30:21;12.10;94.20
1678;DHT22;6034;46.864;15.216;2023-02-22T17:32:49;12.10;94.60
1678;DHT22;6034;46.864;15.216;2023-02-22T17:35:17;12.20;94.50
1678;DHT22;6034;46.864;15.216;2023-02-22T17:37:49;12.20;94.40
1678;DHT22;6034;46.864;15.216;2023-02-22T17:40:16;12.20;94.40
1678;DHT22;6034;46.864;15.216;2023-02-22T17:42:44;12.20;94.70
1678;DHT22;6034;46.864;15.216;2023-02-22T17:45:12;12.10;94.80
1678;DHT22;6034;46.864;15.216;2023-02-22T17:47:40;12.10;95.00
1678;DHT22;6034;46.864;15.216;2023-02-22T17:50:09;12.00;95.10
1678;DHT22;6034;46.864;15.216;2023-02-22T17:52:37;12.00;95.30
1678;DHT22;6034;46.864;15.216;2023-02-22T17:55:06;12.00;95.10
1678;DHT22;6034;46.864;15.216;2023-02-22T17:57:34;12.00;95.20
1678;DHT22;6034;46.864;15.216;2023-02-22T18:00:03;11.90;95.40
1678;DHT22;6034;46.864;15.216;2023-02-22T18:02:37;11.90;95.50
1678;DHT22;6034;46.864;15.216;2023-02-22T18:05:06;11.80;95.60
1678;DHT22;6034;46.864;15.216;2023-02-22T18:07:34;11.80;95.80
1678;DHT22;6034;46.864;15.216;2023-02-22T18:12:38;11.80;95.60
1678;DHT22;6034;46.864;15.216;2023-02-22T18:15:07;11.70;96.10
1678;DHT22;6034;46.864;15.216;2023-02-22T18:17:35;11.70;96.00
1678;DHT22;6034;46.864;15.216;2023-02-22T18:20:03;11.70;96.10
1678;DHT22;6034;46.864;15.216;2023-02-22T18:22:38;11.70;96.00
1678;DHT22;6034;46.864;15.216;2023-02-22T18:25:08;11.70;95.90
1678;DHT22;6034;46.864;15.216;2023-02-22T18:27:36;11.60;96.30
1678;DHT22;6034;46.864;15.216;2023-02-22T18:30:13;11.50;96.20
1678;DHT22;6034;46.864;15.216;2023-02-22T18:32:43;11.50;96.50
1678;DHT22;6034;46.864;15.216;2023-02-22T18:35:11;11.60;96.70
1678;DHT22;6034;46.864;15.216;2023-02-22T18:37:38;11.60;96.50
1678;DHT22;6034;46.864;15.216;2023-02-22T18:40:09;11.50;96.80
1678;DHT22;6034;46.864;15.216;2023-02-22T18:42:37;11.50;97.00
1678;DHT22;6034;46.864;15.216;2023-02-22T18:45:04;11.50;97.20
1678;DHT22;6034;46.864;15.216;2023-02-22T18:47:37;11.40;97.30
1678;DHT22;6034;46.864;15.216;2023-02-22T18:50:07;11.40;97.00
1678;DHT22;6034;46.864;15.216;2023-02-22T18:52:35;11.40;97.40
1678;DHT22;6034;46.864;15.216;2023-02-22T18:55:10;10.90;97.20
1678;DHT22;6034;46.864;15.216;2023-02-22T18:57:38;11.40;97.40
1678;DHT22;6034;46.864;15.216;2023-02-22T19:00:06;11.30;97.70
1678;DHT22;6034;46.864;15.216;2023-02-22T19:02:35;11.30;97.90
1678;DHT22;6034;46.864;15.216;2023-02-22T19:05:10;11.30;98.10
1678;DHT22;6034;46.864;15.216;2023-02-22T19:07:38;11.30;98.00
1678;DHT22;6034;46.864;15.216;2023-02-22T19:10:08;11.20;97.90
1678;DHT22;6034;46.864;15.216;2023-02-22T19:12:35;11.20;98.20
1678;DHT22;6034;46.864;15.216;2023-02-22T19:15:03;11.20;98.70
1678;DHT22;6034;46.864;15.216;2023-02-22T19:17:30;11.10;98.80
1678;DHT22;6034;46.864;15.216;2023-02-22T19:20:03;11.20;98.80
1678;DHT22;6034;46.864;15.216;2023-02-22T19:22:34;11.20;98.90
1678;DHT22;6034;46.864;15.216;2023-02-22T19:25:04;11.20;99.00
1678;DHT22;6034;46.864;15.216;2023-02-22T19:27:32;11.20;99.10
1678;DHT22;6034;46.864;15.216;2023-02-22T19:30:01;11.20;98.80
1678;DHT22;6034;46.864;15.216;2023-02-22T19:32:30;11.20;98.90
1678;DHT22;6034;46.864;15.216;2023-02-22T19:35:01;11.10;99.20
1678;DHT22;6034;46.864;15.216;2023-02-22T19:37:34;11.10;99.20
1678;DHT22;6034;46.864;15.216;2023-02-22T19:40:04;11.20;99.30
1678;DHT22;6034;46.864;15.216;2023-02-22T19:42:35;11.10;99.30
1678;DHT22;6034;46.864;15.216;2023-02-22T19:45:05;11.10;99.30
1678;DHT22;6034;46.864;15.216;2023-02-22T19:47:34;11.10;99.10
1678;DHT22;6034;46.864;15.216;2023-02-22T19:50:03;11.10;99.30
1678;DHT22;6034;46.864;15.216;2023-02-22T19:52:34;11.00;99.50
1678;DHT22;6034;46.864;15.216;2023-02-22T19:55:04;10.90;99.90
1678;DHT22;6034;46.864;15.216;2023-02-22T19:57:39;10.90;99.90
1678;DHT22;6034;46.864;15.216;2023-02-22T20:00:08;10.90;99.60
1678;DHT22;6034;46.864;15.216;2023-02-22T20:02:38;10.90;99.90
1678;DHT22;6034;46.864;15.216;2023-02-22T20:05:15;10.80;99.90
1678;DHT22;6034;46.864;15.216;2023-02-22T20:07:51;10.70;99.90
1678;DHT22;6034;46.864;15.216;2023-02-22T20:10:21;10.70;99.90
1678;DHT22;6034;46.864;15.216;2023-02-22T20:12:49;10.70;99.90
1678;DHT22;6034;46.864;15.216;2023-02-22T20:15:19;10.70;99.90
1678;DHT22;6034;46.864;15.216;2023-02-22T20:17:49;10.70;99.90
1678;DHT22;6034;46.864;15.216;2023-02-22T20:20:21;10.70;99.90
1678;DHT22;6034;46.864;15.216;2023-02-22T20:22:52;10.70;99.90
1678;DHT22;6034;46.864;15.216;2023-02-22T20:25:21;10.60;99.90
1678;DHT22;6034;46.864;15.216;2023-02-22T20:27:50;10.60;99.90
1678;DHT22;6034;46.864;15.216;2023-02-22T20:30:19;10.40;99.90
1678;DHT22;6034;46.864;15.216;2023-02-22T20:32:49;10.40;99.90
1678;DHT22;6034;46.864;15.216;2023-02-22T20:35:18;10.30;99.90
1678;DHT22;6034;46.864;15.216;2023-02-22T20:37:53;10.40;99.90
1678;DHT22;6034;46.864;15.216;2023-02-22T20:40:22;10.40;99.90
1678;DHT22;6034;46.864;15.216;2023-02-22T20:42:50;10.40;99.90
1678;DHT22;6034;46.864;15.216;2023-02-22T20:45:21;10.40;99.90
1678;DHT22;6034;46.864;15.216;2023-02-22T20:47:50;10.50;99.90
1678;DHT22;6034;46.864;15.216;2023-02-22T20:50:20;10.30;99.90
1678;DHT22;6034;46.864;15.216;2023-02-22T20:52:50;10.30;99.90
1678;DHT22;6034;46.864;15.216;2023-02-22T20:55:29;10.40;99.90
1678;DHT22;6034;46.864;15.216;2023-02-22T20:57:57;10.40;99.90
1678;DHT22;6034;46.864;15.216;2023-02-22T21:00:26;10.30;99.90
1678;DHT22;6034;46.864;15.216;2023-02-22T21:02:55;10.40;99.90
1678;DHT22;6034;46.864;15.216;2023-02-22T21:05:23;10.40;99.90
1678;DHT22;6034;46.864;15.216;2023-02-22T21:07:59;10.30;99.90
1678;DHT22;6034;46.864;15.216;2023-02-22T21:10:34;10.30;99.90
1678;DHT22;6034;46.864;15.216;2023-02-22T21:13:07;10.30;99.90
1678;DHT22;6034;46.864;15.216;2023-02-22T21:15:37;10.30;99.90
1678;DHT22;6034;46.864;15.216;2023-02-22T21:18:09;10.20;99.90
1678;DHT22;6034;46.864;15.216;2023-02-22T21:20:37;10.20;99.90
1678;DHT22;6034;46.864;15.216;2023-02-22T21:23:08;10.20;99.90
1678;DHT22;6034;46.864;15.216;2023-02-22T21:25:49;10.10;99.90
1678;DHT22;6034;46.864;15.216;2023-02-22T21:28:18;10.20;99.90
1678;DHT22;6034;46.864;15.216;2023-02-22T21:30:46;10.20;99.90
1678;DHT22;6034;46.864;15.216;2023-02-22T21:33:14;10.00;99.90
1678;DHT22;6034;46.864;15.216;2023-02-22T21:35:44;9.90;99.90
1678;DHT22;6034;46.864;15.216;2023-02-22T21:38:13;10.00;99.90
1678;DHT22;6034;46.864;15.216;2023-02-22T21:40:46;10.00;99.90
1678;DHT22;6034;46.864;15.216;2023-02-22T21:43:14;10.00;99.90
1678;DHT22;6034;46.864;15.216;2023-02-22T21:45:42;10.10;99.90
1678;DHT22;6034;46.864;15.216;2023-02-22T21:48:10;10.10;99.90
1678;DHT22;6034;46.864;15.216;2023-02-22T21:50:39;10.10;99.90
1678;DHT22;6034;46.864;15.216;2023-02-22T21:53:07;10.20;99.90
1678;DHT22;6034;46.864;15.216;2023-02-22T21:55:34;10.00;99.90
1678;DHT22;6034;46.864;15.216;2023-02-22T21:58:04;10.10;99.90
1678;DHT22;6034;46.864;15.216;2023-02-22T22:00:31;9.90;99.90
1678;DHT22;6034;46.864;15.216;2023-02-22T22:03:03;10.00;99.90
1678;DHT22;6034;46.864;15.216;2023-02-22T22:05:36;10.00;99.90
1678;DHT22;6034;46.864;15.216;2023-02-22T22:08:04;9.90;99.90
1678;DHT22;6034;46.864;15.216;2023-02-22T22:10:32;9.80;99.90
1678;DHT22;6034;46.864;15.216;2023-02-22T22:12:59;9.90;99.90
1678;DHT22;6034;46.864;15.216;2023-02-22T22:15:28;9.90;99.90
1678;DHT22;6034;46.864;15.216;2023-02-22T22:18:01;9.90;99.90
1678;DHT22;6034;46.864;15.216;2023-02-22T22:20:31;9.80;99.90
1678;DHT22;6034;46.864;15.216;2023-02-22T22:23:00;9.80;99.90
1678;DHT22;6034;46.864;15.216;2023-02-22T22:25:28;9.80;99.90